<?xml version="1.0" encoding="UTF-8" standalone="no" ?>
<gpx xmlns="http://www.topografix.com/GPX/1/1" xmlns:xsi="http://www.w3.org/2001/XMLSchema-instance" xsi:schemaLocation="http://www.topografix.com/GPX/1/1 http://www.topografix.com/GPX/1/1/gpx.xsd" version="1.1" creator="VisuGPX - https://www.visugpx.com">
  <metadata>
    <name>La Bégude-Aleyrac</name>
    <desc><![CDATA[#Drome]]></desc>
  </metadata>
  <trk>
    <name><![CDATA[La Bégude-Aleyrac]]></name>
    <trkseg>
      <trkpt lat="44.55083" lon="4.93859">
        <ele>287</ele>
        <time>2022-05-08T07:30:00.333Z</time>
      </trkpt>
      <trkpt lat="44.55065" lon="4.93894">
        <ele>288</ele>
        <time>2022-05-08T07:30:24.801Z</time>
      </trkpt>
      <trkpt lat="44.55061" lon="4.93889">
        <ele>288</ele>
        <time>2022-05-08T07:30:29.680Z</time>
      </trkpt>
      <trkpt lat="44.55024" lon="4.93958">
        <ele>288</ele>
        <time>2022-05-08T07:31:18.920Z</time>
      </trkpt>
      <trkpt lat="44.55003" lon="4.93977">
        <ele>286</ele>
        <time>2022-05-08T07:31:38.932Z</time>
      </trkpt>
      <trkpt lat="44.5495" lon="4.94008">
        <ele>286</ele>
        <time>2022-05-08T07:32:24.896Z</time>
      </trkpt>
      <trkpt lat="44.54931" lon="4.9401">
        <ele>286</ele>
        <time>2022-05-08T07:32:40.141Z</time>
      </trkpt>
      <trkpt lat="44.54909" lon="4.93992">
        <ele>283</ele>
        <time>2022-05-08T07:33:00.534Z</time>
      </trkpt>
      <trkpt lat="44.54876" lon="4.93947">
        <ele>283</ele>
        <time>2022-05-08T07:33:37.412Z</time>
      </trkpt>
      <trkpt lat="44.54825" lon="4.93903">
        <ele>281</ele>
        <time>2022-05-08T07:34:25.357Z</time>
      </trkpt>
      <trkpt lat="44.54789" lon="4.93865">
        <ele>280</ele>
        <time>2022-05-08T07:35:06.466Z</time>
      </trkpt>
      <trkpt lat="44.54716" lon="4.93797">
        <ele>269</ele>
        <time>2022-05-08T07:36:42.311Z</time>
      </trkpt>
      <trkpt lat="44.54649" lon="4.9376">
        <ele>261</ele>
        <time>2022-05-08T07:38:05.185Z</time>
      </trkpt>
      <trkpt lat="44.54612" lon="4.93747">
        <ele>255</ele>
        <time>2022-05-08T07:39:02.217Z</time>
      </trkpt>
      <trkpt lat="44.54585" lon="4.93728">
        <ele>249</ele>
        <time>2022-05-08T07:39:55.094Z</time>
      </trkpt>
      <trkpt lat="44.5455" lon="4.93716">
        <ele>241</ele>
        <time>2022-05-08T07:40:55.926Z</time>
      </trkpt>
      <trkpt lat="44.54528" lon="4.93717">
        <ele>236</ele>
        <time>2022-05-08T07:41:32.854Z</time>
      </trkpt>
      <trkpt lat="44.54522" lon="4.93689">
        <ele>233</ele>
        <time>2022-05-08T07:42:06.441Z</time>
      </trkpt>
      <trkpt lat="44.54502" lon="4.93695">
        <ele>229</ele>
        <time>2022-05-08T07:42:37.997Z</time>
      </trkpt>
      <trkpt lat="44.54456" lon="4.93686">
        <ele>220</ele>
        <time>2022-05-08T07:43:20.559Z</time>
      </trkpt>
      <trkpt lat="44.5447" lon="4.93601">
        <ele>219</ele>
        <time>2022-05-08T07:44:10.467Z</time>
      </trkpt>
      <trkpt lat="44.54468" lon="4.93563">
        <ele>217</ele>
        <time>2022-05-08T07:44:32.268Z</time>
      </trkpt>
      <trkpt lat="44.54472" lon="4.93508">
        <ele>216</ele>
        <time>2022-05-08T07:45:03.900Z</time>
      </trkpt>
      <trkpt lat="44.5438" lon="4.93489">
        <ele>215</ele>
        <time>2022-05-08T07:46:18.306Z</time>
      </trkpt>
      <trkpt lat="44.54315" lon="4.93474">
        <ele>215</ele>
        <time>2022-05-08T07:47:11.015Z</time>
      </trkpt>
      <trkpt lat="44.54287" lon="4.93519">
        <ele>215</ele>
        <time>2022-05-08T07:47:47.250Z</time>
      </trkpt>
      <trkpt lat="44.54215" lon="4.93669">
        <ele>217</ele>
        <time>2022-05-08T07:49:43.641Z</time>
      </trkpt>
      <trkpt lat="44.54202" lon="4.93781">
        <ele>220</ele>
        <time>2022-05-08T07:50:54.481Z</time>
      </trkpt>
      <trkpt lat="44.54196" lon="4.93796">
        <ele>220</ele>
        <time>2022-05-08T07:51:05.211Z</time>
      </trkpt>
      <trkpt lat="44.54064" lon="4.93858">
        <ele>221</ele>
        <time>2022-05-08T07:53:13.226Z</time>
      </trkpt>
      <trkpt lat="44.53784" lon="4.93767">
        <ele>232</ele>
        <time>2022-05-08T07:57:50.236Z</time>
      </trkpt>
      <trkpt lat="44.53711" lon="4.93794">
        <ele>235</ele>
        <time>2022-05-08T07:59:09.057Z</time>
      </trkpt>
      <trkpt lat="44.53666" lon="4.93779">
        <ele>239</ele>
        <time>2022-05-08T08:00:10.237Z</time>
      </trkpt>
      <trkpt lat="44.53619" lon="4.93772">
        <ele>243</ele>
        <time>2022-05-08T08:01:14.347Z</time>
      </trkpt>
      <trkpt lat="44.53591" lon="4.93752">
        <ele>246</ele>
        <time>2022-05-08T08:02:01.075Z</time>
      </trkpt>
      <trkpt lat="44.53536" lon="4.93772">
        <ele>252</ele>
        <time>2022-05-08T08:03:30.769Z</time>
      </trkpt>
      <trkpt lat="44.53449" lon="4.93768">
        <ele>262</ele>
        <time>2022-05-08T08:05:32.979Z</time>
      </trkpt>
      <trkpt lat="44.53377" lon="4.93751">
        <ele>267</ele>
        <time>2022-05-08T08:07:02.209Z</time>
      </trkpt>
      <trkpt lat="44.53344" lon="4.93752">
        <ele>270</ele>
        <time>2022-05-08T08:07:48.899Z</time>
      </trkpt>
      <trkpt lat="44.53293" lon="4.93743">
        <ele>275</ele>
        <time>2022-05-08T08:08:57.121Z</time>
      </trkpt>
      <trkpt lat="44.53265" lon="4.93728">
        <ele>277</ele>
        <time>2022-05-08T08:09:45.081Z</time>
      </trkpt>
      <trkpt lat="44.53251" lon="4.93729">
        <ele>279</ele>
        <time>2022-05-08T08:10:07.503Z</time>
      </trkpt>
      <trkpt lat="44.53232" lon="4.93755">
        <ele>283</ele>
        <time>2022-05-08T08:11:01.135Z</time>
      </trkpt>
      <trkpt lat="44.53208" lon="4.93807">
        <ele>290</ele>
        <time>2022-05-08T08:12:34.264Z</time>
      </trkpt>
      <trkpt lat="44.5317" lon="4.93829">
        <ele>297</ele>
        <time>2022-05-08T08:14:13.453Z</time>
      </trkpt>
      <trkpt lat="44.53137" lon="4.93863">
        <ele>306</ele>
        <time>2022-05-08T08:15:35.431Z</time>
      </trkpt>
      <trkpt lat="44.53119" lon="4.93868">
        <ele>308</ele>
        <time>2022-05-08T08:16:12.131Z</time>
      </trkpt>
      <trkpt lat="44.53062" lon="4.9391">
        <ele>316</ele>
        <time>2022-05-08T08:18:33.464Z</time>
      </trkpt>
      <trkpt lat="44.53024" lon="4.93958">
        <ele>328</ele>
        <time>2022-05-08T08:20:17.525Z</time>
      </trkpt>
      <trkpt lat="44.52981" lon="4.93974">
        <ele>331</ele>
        <time>2022-05-08T08:21:07.826Z</time>
      </trkpt>
      <trkpt lat="44.52935" lon="4.93977">
        <ele>334</ele>
        <time>2022-05-08T08:22:47.170Z</time>
      </trkpt>
      <trkpt lat="44.52913" lon="4.94007">
        <ele>344</ele>
        <time>2022-05-08T08:23:59.704Z</time>
      </trkpt>
      <trkpt lat="44.52894" lon="4.94006">
        <ele>345</ele>
        <time>2022-05-08T08:24:36.883Z</time>
      </trkpt>
      <trkpt lat="44.52883" lon="4.93995">
        <ele>346</ele>
        <time>2022-05-08T08:24:51.400Z</time>
      </trkpt>
      <trkpt lat="44.52866" lon="4.93999">
        <ele>346</ele>
        <time>2022-05-08T08:25:10.173Z</time>
      </trkpt>
      <trkpt lat="44.52804" lon="4.9403">
        <ele>351</ele>
        <time>2022-05-08T08:26:16.638Z</time>
      </trkpt>
      <trkpt lat="44.5277" lon="4.94044">
        <ele>351</ele>
        <time>2022-05-08T08:26:47.012Z</time>
      </trkpt>
      <trkpt lat="44.52736" lon="4.94071">
        <ele>352</ele>
        <time>2022-05-08T08:27:20.584Z</time>
      </trkpt>
      <trkpt lat="44.52711" lon="4.94102">
        <ele>352</ele>
        <time>2022-05-08T08:28:14.729Z</time>
      </trkpt>
      <trkpt lat="44.52708" lon="4.94111">
        <ele>353</ele>
        <time>2022-05-08T08:28:29.748Z</time>
      </trkpt>
      <trkpt lat="44.5271" lon="4.94139">
        <ele>359</ele>
        <time>2022-05-08T08:29:30.975Z</time>
      </trkpt>
      <trkpt lat="44.52678" lon="4.94163">
        <ele>368</ele>
        <time>2022-05-08T08:31:26.406Z</time>
      </trkpt>
      <trkpt lat="44.52668" lon="4.942">
        <ele>376</ele>
        <time>2022-05-08T08:32:24.745Z</time>
      </trkpt>
      <trkpt lat="44.52616" lon="4.9424">
        <ele>382</ele>
        <time>2022-05-08T08:34:11.645Z</time>
      </trkpt>
      <trkpt lat="44.52606" lon="4.94302">
        <ele>390</ele>
        <time>2022-05-08T08:36:18.792Z</time>
      </trkpt>
      <trkpt lat="44.52604" lon="4.94341">
        <ele>399</ele>
        <time>2022-05-08T08:37:42.733Z</time>
      </trkpt>
      <trkpt lat="44.52634" lon="4.94421">
        <ele>413</ele>
        <time>2022-05-08T08:40:53.129Z</time>
      </trkpt>
      <trkpt lat="44.52631" lon="4.94445">
        <ele>418</ele>
        <time>2022-05-08T08:41:38.801Z</time>
      </trkpt>
      <trkpt lat="44.52626" lon="4.94454">
        <ele>421</ele>
        <time>2022-05-08T08:42:00.086Z</time>
      </trkpt>
      <trkpt lat="44.52593" lon="4.94438">
        <ele>426</ele>
        <time>2022-05-08T08:43:34.389Z</time>
      </trkpt>
      <trkpt lat="44.52592" lon="4.94508">
        <ele>440</ele>
        <time>2022-05-08T08:45:18.459Z</time>
      </trkpt>
      <trkpt lat="44.52572" lon="4.94551">
        <ele>440</ele>
        <time>2022-05-08T08:45:47.815Z</time>
      </trkpt>
      <trkpt lat="44.52561" lon="4.94635">
        <ele>440</ele>
        <time>2022-05-08T08:46:42.423Z</time>
      </trkpt>
      <trkpt lat="44.52564" lon="4.94653">
        <ele>443</ele>
        <time>2022-05-08T08:46:53.984Z</time>
      </trkpt>
      <trkpt lat="44.52626" lon="4.94657">
        <ele>443</ele>
        <time>2022-05-08T08:48:21.246Z</time>
      </trkpt>
      <trkpt lat="44.52668" lon="4.94641">
        <ele>453</ele>
        <time>2022-05-08T08:50:07.717Z</time>
      </trkpt>
      <trkpt lat="44.52705" lon="4.94645">
        <ele>459</ele>
        <time>2022-05-08T08:51:14.961Z</time>
      </trkpt>
      <trkpt lat="44.52749" lon="4.94634">
        <ele>464</ele>
        <time>2022-05-08T08:52:01.053Z</time>
      </trkpt>
      <trkpt lat="44.52792" lon="4.946">
        <ele>464</ele>
        <time>2022-05-08T08:52:43.276Z</time>
      </trkpt>
      <trkpt lat="44.52821" lon="4.94594">
        <ele>465</ele>
        <time>2022-05-08T08:53:06.995Z</time>
      </trkpt>
      <trkpt lat="44.52844" lon="4.946">
        <ele>464</ele>
        <time>2022-05-08T08:53:25.853Z</time>
      </trkpt>
      <trkpt lat="44.52871" lon="4.94618">
        <ele>464</ele>
        <time>2022-05-08T08:53:49.524Z</time>
      </trkpt>
      <trkpt lat="44.52908" lon="4.94571">
        <ele>463</ele>
        <time>2022-05-08T08:54:29.974Z</time>
      </trkpt>
      <trkpt lat="44.52911" lon="4.94527">
        <ele>462</ele>
        <time>2022-05-08T08:54:55.210Z</time>
      </trkpt>
      <trkpt lat="44.52882" lon="4.94404">
        <ele>462</ele>
        <time>2022-05-08T08:56:09.447Z</time>
      </trkpt>
      <trkpt lat="44.52888" lon="4.94398">
        <ele>460</ele>
        <time>2022-05-08T08:56:14.909Z</time>
      </trkpt>
      <trkpt lat="44.52908" lon="4.94412">
        <ele>460</ele>
        <time>2022-05-08T08:56:32.400Z</time>
      </trkpt>
      <trkpt lat="44.52888" lon="4.94398">
        <ele>460</ele>
        <time>2022-05-08T08:56:51.185Z</time>
      </trkpt>
      <trkpt lat="44.52882" lon="4.94404">
        <ele>462</ele>
        <time>2022-05-08T08:56:57.123Z</time>
      </trkpt>
      <trkpt lat="44.52911" lon="4.94527">
        <ele>462</ele>
        <time>2022-05-08T08:58:14.525Z</time>
      </trkpt>
      <trkpt lat="44.52908" lon="4.94571">
        <ele>463</ele>
        <time>2022-05-08T08:58:43.019Z</time>
      </trkpt>
      <trkpt lat="44.52871" lon="4.94618">
        <ele>464</ele>
        <time>2022-05-08T08:59:26.144Z</time>
      </trkpt>
      <trkpt lat="44.52844" lon="4.946">
        <ele>464</ele>
        <time>2022-05-08T08:59:52.175Z</time>
      </trkpt>
      <trkpt lat="44.52821" lon="4.94594">
        <ele>465</ele>
        <time>2022-05-08T09:00:11.033Z</time>
      </trkpt>
      <trkpt lat="44.52792" lon="4.946">
        <ele>464</ele>
        <time>2022-05-08T09:00:34.752Z</time>
      </trkpt>
      <trkpt lat="44.52749" lon="4.94634">
        <ele>464</ele>
        <time>2022-05-08T09:01:14.324Z</time>
      </trkpt>
      <trkpt lat="44.52705" lon="4.94645">
        <ele>459</ele>
        <time>2022-05-08T09:02:08.189Z</time>
      </trkpt>
      <trkpt lat="44.52668" lon="4.94641">
        <ele>453</ele>
        <time>2022-05-08T09:03:09.847Z</time>
      </trkpt>
      <trkpt lat="44.52626" lon="4.94657">
        <ele>443</ele>
        <time>2022-05-08T09:04:10.770Z</time>
      </trkpt>
      <trkpt lat="44.52564" lon="4.94653">
        <ele>436</ele>
        <time>2022-05-08T09:05:06.808Z</time>
      </trkpt>
      <trkpt lat="44.52526" lon="4.9466">
        <ele>434</ele>
        <time>2022-05-08T09:05:37.604Z</time>
      </trkpt>
      <trkpt lat="44.52458" lon="4.94654">
        <ele>434</ele>
        <time>2022-05-08T09:06:32.118Z</time>
      </trkpt>
      <trkpt lat="44.5243" lon="4.94649">
        <ele>434</ele>
        <time>2022-05-08T09:06:54.702Z</time>
      </trkpt>
      <trkpt lat="44.52403" lon="4.94653">
        <ele>434</ele>
        <time>2022-05-08T09:07:16.425Z</time>
      </trkpt>
      <trkpt lat="44.52375" lon="4.94666">
        <ele>434</ele>
        <time>2022-05-08T09:07:42.863Z</time>
      </trkpt>
      <trkpt lat="44.52357" lon="4.94679">
        <ele>431</ele>
        <time>2022-05-08T09:08:08.070Z</time>
      </trkpt>
      <trkpt lat="44.52345" lon="4.94702">
        <ele>428</ele>
        <time>2022-05-08T09:08:42.887Z</time>
      </trkpt>
      <trkpt lat="44.52338" lon="4.94732">
        <ele>421</ele>
        <time>2022-05-08T09:09:06.005Z</time>
      </trkpt>
      <trkpt lat="44.52322" lon="4.9475">
        <ele>418</ele>
        <time>2022-05-08T09:09:27.038Z</time>
      </trkpt>
      <trkpt lat="44.52276" lon="4.94771">
        <ele>418</ele>
        <time>2022-05-08T09:10:05.755Z</time>
      </trkpt>
      <trkpt lat="44.52243" lon="4.9478">
        <ele>418</ele>
        <time>2022-05-08T09:10:32.656Z</time>
      </trkpt>
      <trkpt lat="44.52196" lon="4.94756">
        <ele>418</ele>
        <time>2022-05-08T09:11:12.791Z</time>
      </trkpt>
      <trkpt lat="44.52085" lon="4.9476">
        <ele>418</ele>
        <time>2022-05-08T09:12:43.354Z</time>
      </trkpt>
      <trkpt lat="44.51963" lon="4.94731">
        <ele>404</ele>
        <time>2022-05-08T09:14:32.590Z</time>
      </trkpt>
      <trkpt lat="44.51943" lon="4.94732">
        <ele>404</ele>
        <time>2022-05-08T09:14:50.154Z</time>
      </trkpt>
      <trkpt lat="44.51933" lon="4.94767">
        <ele>404</ele>
        <time>2022-05-08T09:15:29.460Z</time>
      </trkpt>
      <trkpt lat="44.51892" lon="4.94852">
        <ele>414</ele>
        <time>2022-05-08T09:17:50.248Z</time>
      </trkpt>
      <trkpt lat="44.51857" lon="4.9489">
        <ele>421</ele>
        <time>2022-05-08T09:19:18.702Z</time>
      </trkpt>
      <trkpt lat="44.51822" lon="4.94918">
        <ele>427</ele>
        <time>2022-05-08T09:20:14.434Z</time>
      </trkpt>
      <trkpt lat="44.51798" lon="4.94927">
        <ele>427</ele>
        <time>2022-05-08T09:20:34.428Z</time>
      </trkpt>
      <trkpt lat="44.51773" lon="4.94928">
        <ele>427</ele>
        <time>2022-05-08T09:20:59.471Z</time>
      </trkpt>
      <trkpt lat="44.51765" lon="4.94917">
        <ele>427</ele>
        <time>2022-05-08T09:21:10.694Z</time>
      </trkpt>
      <trkpt lat="44.51746" lon="4.94838">
        <ele>417</ele>
        <time>2022-05-08T09:22:07.868Z</time>
      </trkpt>
      <trkpt lat="44.51736" lon="4.94829">
        <ele>417</ele>
        <time>2022-05-08T09:22:20.198Z</time>
      </trkpt>
      <trkpt lat="44.517" lon="4.94843">
        <ele>416</ele>
        <time>2022-05-08T09:22:49.556Z</time>
      </trkpt>
      <trkpt lat="44.51667" lon="4.9488">
        <ele>415</ele>
        <time>2022-05-08T09:23:23.721Z</time>
      </trkpt>
      <trkpt lat="44.51601" lon="4.94923">
        <ele>411</ele>
        <time>2022-05-08T09:24:22.235Z</time>
      </trkpt>
      <trkpt lat="44.51553" lon="4.94911">
        <ele>408</ele>
        <time>2022-05-08T09:25:01.292Z</time>
      </trkpt>
      <trkpt lat="44.51458" lon="4.94819">
        <ele>408</ele>
        <time>2022-05-08T09:26:33.763Z</time>
      </trkpt>
      <trkpt lat="44.51391" lon="4.94758">
        <ele>408</ele>
        <time>2022-05-08T09:27:37.740Z</time>
      </trkpt>
      <trkpt lat="44.51306" lon="4.94716">
        <ele>408</ele>
        <time>2022-05-08T09:29:03.962Z</time>
      </trkpt>
      <trkpt lat="44.51242" lon="4.94668">
        <ele>414</ele>
        <time>2022-05-08T09:30:17.169Z</time>
      </trkpt>
      <trkpt lat="44.51173" lon="4.9465">
        <ele>415</ele>
        <time>2022-05-08T09:31:18.520Z</time>
      </trkpt>
      <trkpt lat="44.51132" lon="4.94626">
        <ele>416</ele>
        <time>2022-05-08T09:31:55.358Z</time>
      </trkpt>
      <trkpt lat="44.51043" lon="4.94552">
        <ele>416</ele>
        <time>2022-05-08T09:33:20.614Z</time>
      </trkpt>
      <trkpt lat="44.50972" lon="4.94502">
        <ele>417</ele>
        <time>2022-05-08T09:34:37.972Z</time>
      </trkpt>
      <trkpt lat="44.50917" lon="4.94447">
        <ele>422</ele>
        <time>2022-05-08T09:35:44.412Z</time>
      </trkpt>
      <trkpt lat="44.50897" lon="4.94385">
        <ele>422</ele>
        <time>2022-05-08T09:36:23.349Z</time>
      </trkpt>
      <trkpt lat="44.50871" lon="4.94328">
        <ele>422</ele>
        <time>2022-05-08T09:37:06.619Z</time>
      </trkpt>
      <trkpt lat="44.50837" lon="4.94295">
        <ele>424</ele>
        <time>2022-05-08T09:37:55.564Z</time>
      </trkpt>
      <trkpt lat="44.50752" lon="4.94192">
        <ele>433</ele>
        <time>2022-05-08T09:39:59.602Z</time>
      </trkpt>
      <trkpt lat="44.50722" lon="4.94145">
        <ele>434</ele>
        <time>2022-05-08T09:40:38.184Z</time>
      </trkpt>
      <trkpt lat="44.50693" lon="4.94131">
        <ele>434</ele>
        <time>2022-05-08T09:41:02.732Z</time>
      </trkpt>
      <trkpt lat="44.50619" lon="4.9412">
        <ele>434</ele>
        <time>2022-05-08T09:42:02.272Z</time>
      </trkpt>
      <trkpt lat="44.5059" lon="4.94099">
        <ele>431</ele>
        <time>2022-05-08T09:42:30.281Z</time>
      </trkpt>
      <trkpt lat="44.50555" lon="4.94106">
        <ele>429</ele>
        <time>2022-05-08T09:42:58.569Z</time>
      </trkpt>
      <trkpt lat="44.50462" lon="4.94161">
        <ele>426</ele>
        <time>2022-05-08T09:44:19.366Z</time>
      </trkpt>
      <trkpt lat="44.50395" lon="4.94187">
        <ele>426</ele>
        <time>2022-05-08T09:45:15.000Z</time>
      </trkpt>
      <trkpt lat="44.50265" lon="4.94236">
        <ele>426</ele>
        <time>2022-05-08T09:47:02.728Z</time>
      </trkpt>
      <trkpt lat="44.50266" lon="4.94259">
        <ele>426</ele>
        <time>2022-05-08T09:47:15.922Z</time>
      </trkpt>
      <trkpt lat="44.50245" lon="4.94287">
        <ele>426</ele>
        <time>2022-05-08T09:47:39.146Z</time>
      </trkpt>
      <trkpt lat="44.50137" lon="4.94349">
        <ele>426</ele>
        <time>2022-05-08T09:49:12.563Z</time>
      </trkpt>
      <trkpt lat="44.501" lon="4.94364">
        <ele>425</ele>
        <time>2022-05-08T09:49:43.387Z</time>
      </trkpt>
      <trkpt lat="44.50068" lon="4.94356">
        <ele>425</ele>
        <time>2022-05-08T09:50:12.834Z</time>
      </trkpt>
      <trkpt lat="44.50055" lon="4.94359">
        <ele>425</ele>
        <time>2022-05-08T09:50:24.770Z</time>
      </trkpt>
      <trkpt lat="44.50028" lon="4.94389">
        <ele>427</ele>
        <time>2022-05-08T09:51:26.141Z</time>
      </trkpt>
      <trkpt lat="44.5001" lon="4.94416">
        <ele>433</ele>
        <time>2022-05-08T09:52:39.739Z</time>
      </trkpt>
      <trkpt lat="44.49995" lon="4.94445">
        <ele>439</ele>
        <time>2022-05-08T09:53:41.057Z</time>
      </trkpt>
      <trkpt lat="44.49989" lon="4.94488">
        <ele>444</ele>
        <time>2022-05-08T09:54:41.882Z</time>
      </trkpt>
      <trkpt lat="44.49985" lon="4.94493">
        <ele>445</ele>
        <time>2022-05-08T09:54:52.294Z</time>
      </trkpt>
      <trkpt lat="44.4998" lon="4.94494">
        <ele>447</ele>
        <time>2022-05-08T09:55:02.092Z</time>
      </trkpt>
      <trkpt lat="44.49975" lon="4.94487">
        <ele>448</ele>
        <time>2022-05-08T09:55:16.140Z</time>
      </trkpt>
      <trkpt lat="44.49967" lon="4.94463">
        <ele>449</ele>
        <time>2022-05-08T09:55:48.837Z</time>
      </trkpt>
      <trkpt lat="44.49942" lon="4.94424">
        <ele>455</ele>
        <time>2022-05-08T09:57:30.889Z</time>
      </trkpt>
      <trkpt lat="44.49931" lon="4.94421">
        <ele>459</ele>
        <time>2022-05-08T09:57:54.916Z</time>
      </trkpt>
      <trkpt lat="44.49924" lon="4.94437">
        <ele>463</ele>
        <time>2022-05-08T09:58:24.368Z</time>
      </trkpt>
      <trkpt lat="44.4992" lon="4.94483">
        <ele>465</ele>
        <time>2022-05-08T09:58:53.679Z</time>
      </trkpt>
      <trkpt lat="44.49924" lon="4.94578">
        <ele>465</ele>
        <time>2022-05-08T09:59:48.172Z</time>
      </trkpt>
      <trkpt lat="44.49932" lon="4.94612">
        <ele>465</ele>
        <time>2022-05-08T10:00:27.623Z</time>
      </trkpt>
      <trkpt lat="44.49952" lon="4.94661">
        <ele>453</ele>
        <time>2022-05-08T10:00:59.923Z</time>
      </trkpt>
      <trkpt lat="44.4995" lon="4.94673">
        <ele>453</ele>
        <time>2022-05-08T10:01:06.978Z</time>
      </trkpt>
      <trkpt lat="44.49946" lon="4.94675">
        <ele>453</ele>
        <time>2022-05-08T10:01:10.377Z</time>
      </trkpt>
      <trkpt lat="44.4993" lon="4.94641">
        <ele>461</ele>
        <time>2022-05-08T10:02:39.891Z</time>
      </trkpt>
      <trkpt lat="44.49894" lon="4.94602">
        <ele>472</ele>
        <time>2022-05-08T10:04:54.692Z</time>
      </trkpt>
      <trkpt lat="44.49867" lon="4.94553">
        <ele>483</ele>
        <time>2022-05-08T10:06:05.273Z</time>
      </trkpt>
      <trkpt lat="44.49804" lon="4.94449">
        <ele>488</ele>
        <time>2022-05-08T10:07:47.204Z</time>
      </trkpt>
      <trkpt lat="44.49794" lon="4.94451">
        <ele>489</ele>
        <time>2022-05-08T10:07:57.420Z</time>
      </trkpt>
      <trkpt lat="44.49784" lon="4.94464">
        <ele>490</ele>
        <time>2022-05-08T10:08:11.133Z</time>
      </trkpt>
      <trkpt lat="44.49747" lon="4.94529">
        <ele>492</ele>
        <time>2022-05-08T10:09:03.627Z</time>
      </trkpt>
      <trkpt lat="44.49716" lon="4.9457">
        <ele>492</ele>
        <time>2022-05-08T10:09:37.779Z</time>
      </trkpt>
      <trkpt lat="44.49696" lon="4.9458">
        <ele>492</ele>
        <time>2022-05-08T10:09:54.774Z</time>
      </trkpt>
      <trkpt lat="44.4967" lon="4.94579">
        <ele>489</ele>
        <time>2022-05-08T10:10:15.584Z</time>
      </trkpt>
      <trkpt lat="44.4965" lon="4.94566">
        <ele>489</ele>
        <time>2022-05-08T10:10:33.232Z</time>
      </trkpt>
      <trkpt lat="44.4963" lon="4.94425">
        <ele>486</ele>
        <time>2022-05-08T10:11:55.546Z</time>
      </trkpt>
      <trkpt lat="44.49586" lon="4.94424">
        <ele>484</ele>
        <time>2022-05-08T10:12:33.709Z</time>
      </trkpt>
      <trkpt lat="44.49541" lon="4.94403">
        <ele>479</ele>
        <time>2022-05-08T10:13:20.772Z</time>
      </trkpt>
      <trkpt lat="44.49528" lon="4.94407">
        <ele>478</ele>
        <time>2022-05-08T10:13:33.977Z</time>
      </trkpt>
      <trkpt lat="44.49504" lon="4.94442">
        <ele>474</ele>
        <time>2022-05-08T10:14:09.084Z</time>
      </trkpt>
      <trkpt lat="44.49493" lon="4.9445">
        <ele>473</ele>
        <time>2022-05-08T10:14:21.633Z</time>
      </trkpt>
      <trkpt lat="44.4943" lon="4.94469">
        <ele>466</ele>
        <time>2022-05-08T10:15:31.246Z</time>
      </trkpt>
      <trkpt lat="44.49375" lon="4.94472">
        <ele>459</ele>
        <time>2022-05-08T10:16:27.092Z</time>
      </trkpt>
      <trkpt lat="44.49347" lon="4.94466">
        <ele>457</ele>
        <time>2022-05-08T10:16:50.755Z</time>
      </trkpt>
      <trkpt lat="44.49337" lon="4.94461">
        <ele>456</ele>
        <time>2022-05-08T10:16:59.253Z</time>
      </trkpt>
      <trkpt lat="44.49327" lon="4.94435">
        <ele>455</ele>
        <time>2022-05-08T10:17:16.156Z</time>
      </trkpt>
      <trkpt lat="44.49313" lon="4.94429">
        <ele>455</ele>
        <time>2022-05-08T10:17:27.872Z</time>
      </trkpt>
      <trkpt lat="44.49294" lon="4.94476">
        <ele>455</ele>
        <time>2022-05-08T10:18:00.970Z</time>
      </trkpt>
      <trkpt lat="44.49297" lon="4.94497">
        <ele>456</ele>
        <time>2022-05-08T10:18:13.911Z</time>
      </trkpt>
      <trkpt lat="44.49294" lon="4.94526">
        <ele>456</ele>
        <time>2022-05-08T10:18:30.691Z</time>
      </trkpt>
      <trkpt lat="44.49297" lon="4.94497">
        <ele>456</ele>
        <time>2022-05-08T10:18:47.471Z</time>
      </trkpt>
      <trkpt lat="44.49294" lon="4.94476">
        <ele>454</ele>
        <time>2022-05-08T10:18:59.734Z</time>
      </trkpt>
      <trkpt lat="44.49308" lon="4.94436">
        <ele>454</ele>
        <time>2022-05-08T10:19:27.667Z</time>
      </trkpt>
      <trkpt lat="44.49303" lon="4.94429">
        <ele>454</ele>
        <time>2022-05-08T10:19:34.110Z</time>
      </trkpt>
      <trkpt lat="44.49301" lon="4.94406">
        <ele>455</ele>
        <time>2022-05-08T10:19:52.759Z</time>
      </trkpt>
      <trkpt lat="44.49285" lon="4.94386">
        <ele>456</ele>
        <time>2022-05-08T10:20:23.337Z</time>
      </trkpt>
      <trkpt lat="44.49286" lon="4.94364">
        <ele>458</ele>
        <time>2022-05-08T10:20:45.707Z</time>
      </trkpt>
      <trkpt lat="44.49282" lon="4.94353">
        <ele>460</ele>
        <time>2022-05-08T10:21:01.515Z</time>
      </trkpt>
      <trkpt lat="44.49265" lon="4.94354">
        <ele>461</ele>
        <time>2022-05-08T10:21:34.451Z</time>
      </trkpt>
      <trkpt lat="44.49257" lon="4.94343">
        <ele>463</ele>
        <time>2022-05-08T10:21:54.853Z</time>
      </trkpt>
      <trkpt lat="44.49228" lon="4.94328">
        <ele>468</ele>
        <time>2022-05-08T10:22:50.321Z</time>
      </trkpt>
      <trkpt lat="44.49251" lon="4.94275">
        <ele>473</ele>
        <time>2022-05-08T10:23:42.677Z</time>
      </trkpt>
      <trkpt lat="44.4931" lon="4.94058">
        <ele>483</ele>
        <time>2022-05-08T10:26:28.783Z</time>
      </trkpt>
      <trkpt lat="44.49336" lon="4.93971">
        <ele>484</ele>
        <time>2022-05-08T10:27:25.548Z</time>
      </trkpt>
      <trkpt lat="44.49365" lon="4.93942">
        <ele>484</ele>
        <time>2022-05-08T10:27:54.081Z</time>
      </trkpt>
      <trkpt lat="44.49441" lon="4.93898">
        <ele>483</ele>
        <time>2022-05-08T10:28:59.901Z</time>
      </trkpt>
      <trkpt lat="44.49463" lon="4.93876">
        <ele>483</ele>
        <time>2022-05-08T10:29:21.547Z</time>
      </trkpt>
      <trkpt lat="44.4947" lon="4.93852">
        <ele>482</ele>
        <time>2022-05-08T10:29:36.388Z</time>
      </trkpt>
      <trkpt lat="44.49463" lon="4.93802">
        <ele>479</ele>
        <time>2022-05-08T10:30:05.564Z</time>
      </trkpt>
      <trkpt lat="44.49468" lon="4.9376">
        <ele>479</ele>
        <time>2022-05-08T10:30:29.946Z</time>
      </trkpt>
      <trkpt lat="44.49493" lon="4.93665">
        <ele>479</ele>
        <time>2022-05-08T10:31:30.514Z</time>
      </trkpt>
      <trkpt lat="44.49522" lon="4.93616">
        <ele>480</ele>
        <time>2022-05-08T10:32:12.424Z</time>
      </trkpt>
      <trkpt lat="44.49546" lon="4.93608">
        <ele>481</ele>
        <time>2022-05-08T10:32:33.233Z</time>
      </trkpt>
      <trkpt lat="44.49614" lon="4.93646">
        <ele>481</ele>
        <time>2022-05-08T10:33:31.829Z</time>
      </trkpt>
      <trkpt lat="44.49634" lon="4.93647">
        <ele>481</ele>
        <time>2022-05-08T10:33:47.841Z</time>
      </trkpt>
      <trkpt lat="44.49687" lon="4.93609">
        <ele>480</ele>
        <time>2022-05-08T10:34:35.503Z</time>
      </trkpt>
      <trkpt lat="44.49704" lon="4.93605">
        <ele>480</ele>
        <time>2022-05-08T10:34:49.576Z</time>
      </trkpt>
      <trkpt lat="44.49721" lon="4.93615">
        <ele>479</ele>
        <time>2022-05-08T10:35:04.155Z</time>
      </trkpt>
      <trkpt lat="44.49735" lon="4.93637">
        <ele>478</ele>
        <time>2022-05-08T10:35:21.077Z</time>
      </trkpt>
      <trkpt lat="44.49755" lon="4.93706">
        <ele>478</ele>
        <time>2022-05-08T10:36:03.706Z</time>
      </trkpt>
      <trkpt lat="44.49755" lon="4.9378">
        <ele>476</ele>
        <time>2022-05-08T10:36:58.636Z</time>
      </trkpt>
      <trkpt lat="44.49775" lon="4.93806">
        <ele>469</ele>
        <time>2022-05-08T10:37:36.354Z</time>
      </trkpt>
      <trkpt lat="44.49883" lon="4.93852">
        <ele>454</ele>
        <time>2022-05-08T10:39:24.844Z</time>
      </trkpt>
      <trkpt lat="44.49961" lon="4.93931">
        <ele>448</ele>
        <time>2022-05-08T10:40:41.634Z</time>
      </trkpt>
      <trkpt lat="44.49969" lon="4.93862">
        <ele>448</ele>
        <time>2022-05-08T10:41:26.678Z</time>
      </trkpt>
      <trkpt lat="44.49977" lon="4.93858">
        <ele>448</ele>
        <time>2022-05-08T10:41:34.201Z</time>
      </trkpt>
      <trkpt lat="44.49986" lon="4.93758">
        <ele>451</ele>
        <time>2022-05-08T10:42:39.830Z</time>
      </trkpt>
      <trkpt lat="44.49995" lon="4.93734">
        <ele>451</ele>
        <time>2022-05-08T10:42:57.344Z</time>
      </trkpt>
      <trkpt lat="44.50013" lon="4.93708">
        <ele>451</ele>
        <time>2022-05-08T10:43:18.270Z</time>
      </trkpt>
      <trkpt lat="44.50021" lon="4.93706">
        <ele>450</ele>
        <time>2022-05-08T10:43:24.377Z</time>
      </trkpt>
      <trkpt lat="44.50091" lon="4.93642">
        <ele>448</ele>
        <time>2022-05-08T10:44:31.569Z</time>
      </trkpt>
      <trkpt lat="44.50125" lon="4.93645">
        <ele>445</ele>
        <time>2022-05-08T10:44:59.484Z</time>
      </trkpt>
      <trkpt lat="44.50198" lon="4.93614">
        <ele>441</ele>
        <time>2022-05-08T10:46:00.528Z</time>
      </trkpt>
      <trkpt lat="44.50234" lon="4.93612">
        <ele>440</ele>
        <time>2022-05-08T10:46:29.354Z</time>
      </trkpt>
      <trkpt lat="44.50248" lon="4.93585">
        <ele>439</ele>
        <time>2022-05-08T10:46:48.445Z</time>
      </trkpt>
      <trkpt lat="44.50255" lon="4.93524">
        <ele>437</ele>
        <time>2022-05-08T10:47:25.555Z</time>
      </trkpt>
      <trkpt lat="44.50268" lon="4.93487">
        <ele>434</ele>
        <time>2022-05-08T10:47:54.588Z</time>
      </trkpt>
      <trkpt lat="44.50283" lon="4.93468">
        <ele>431</ele>
        <time>2022-05-08T10:48:14.514Z</time>
      </trkpt>
      <trkpt lat="44.50341" lon="4.93424">
        <ele>425</ele>
        <time>2022-05-08T10:49:09.614Z</time>
      </trkpt>
      <trkpt lat="44.50364" lon="4.93413">
        <ele>425</ele>
        <time>2022-05-08T10:49:29.064Z</time>
      </trkpt>
      <trkpt lat="44.50416" lon="4.93401">
        <ele>423</ele>
        <time>2022-05-08T10:50:11.232Z</time>
      </trkpt>
      <trkpt lat="44.50448" lon="4.93408">
        <ele>423</ele>
        <time>2022-05-08T10:50:37.146Z</time>
      </trkpt>
      <trkpt lat="44.50461" lon="4.93402">
        <ele>423</ele>
        <time>2022-05-08T10:50:48.100Z</time>
      </trkpt>
      <trkpt lat="44.50475" lon="4.93384">
        <ele>422</ele>
        <time>2022-05-08T10:51:03.321Z</time>
      </trkpt>
      <trkpt lat="44.50549" lon="4.93211">
        <ele>422</ele>
        <time>2022-05-08T10:53:01.965Z</time>
      </trkpt>
      <trkpt lat="44.50575" lon="4.93161">
        <ele>423</ele>
        <time>2022-05-08T10:53:39.294Z</time>
      </trkpt>
      <trkpt lat="44.50605" lon="4.93101">
        <ele>423</ele>
        <time>2022-05-08T10:54:21.202Z</time>
      </trkpt>
      <trkpt lat="44.50627" lon="4.93039">
        <ele>423</ele>
        <time>2022-05-08T10:55:06.488Z</time>
      </trkpt>
      <trkpt lat="44.50634" lon="4.93006">
        <ele>425</ele>
        <time>2022-05-08T10:55:28.175Z</time>
      </trkpt>
      <trkpt lat="44.50635" lon="4.92893">
        <ele>425</ele>
        <time>2022-05-08T10:56:35.520Z</time>
      </trkpt>
      <trkpt lat="44.50654" lon="4.9283">
        <ele>426</ele>
        <time>2022-05-08T10:57:17.871Z</time>
      </trkpt>
      <trkpt lat="44.50709" lon="4.92748">
        <ele>427</ele>
        <time>2022-05-08T10:58:24.196Z</time>
      </trkpt>
      <trkpt lat="44.50765" lon="4.92646">
        <ele>427</ele>
        <time>2022-05-08T10:59:37.802Z</time>
      </trkpt>
      <trkpt lat="44.50818" lon="4.92565">
        <ele>427</ele>
        <time>2022-05-08T11:00:40.968Z</time>
      </trkpt>
      <trkpt lat="44.50931" lon="4.92519">
        <ele>427</ele>
        <time>2022-05-08T11:02:16.615Z</time>
      </trkpt>
      <trkpt lat="44.51091" lon="4.92492">
        <ele>428</ele>
        <time>2022-05-08T11:04:29.072Z</time>
      </trkpt>
      <trkpt lat="44.51122" lon="4.92475">
        <ele>428</ele>
        <time>2022-05-08T11:04:55.716Z</time>
      </trkpt>
      <trkpt lat="44.51151" lon="4.92467">
        <ele>427</ele>
        <time>2022-05-08T11:05:19.366Z</time>
      </trkpt>
      <trkpt lat="44.51184" lon="4.9247">
        <ele>427</ele>
        <time>2022-05-08T11:05:46.577Z</time>
      </trkpt>
      <trkpt lat="44.51275" lon="4.92506">
        <ele>419</ele>
        <time>2022-05-08T11:07:02.245Z</time>
      </trkpt>
      <trkpt lat="44.51348" lon="4.92524">
        <ele>418</ele>
        <time>2022-05-08T11:08:01.553Z</time>
      </trkpt>
      <trkpt lat="44.51486" lon="4.92517">
        <ele>417</ele>
        <time>2022-05-08T11:09:52.037Z</time>
      </trkpt>
      <trkpt lat="44.51552" lon="4.92541">
        <ele>416</ele>
        <time>2022-05-08T11:10:46.600Z</time>
      </trkpt>
      <trkpt lat="44.5165" lon="4.92582">
        <ele>409</ele>
        <time>2022-05-08T11:12:08.445Z</time>
      </trkpt>
      <trkpt lat="44.51712" lon="4.92596">
        <ele>409</ele>
        <time>2022-05-08T11:12:58.693Z</time>
      </trkpt>
      <trkpt lat="44.51868" lon="4.92639">
        <ele>409</ele>
        <time>2022-05-08T11:15:12.508Z</time>
      </trkpt>
      <trkpt lat="44.51885" lon="4.92635">
        <ele>411</ele>
        <time>2022-05-08T11:15:27.016Z</time>
      </trkpt>
      <trkpt lat="44.5191" lon="4.92617">
        <ele>411</ele>
        <time>2022-05-08T11:15:49.516Z</time>
      </trkpt>
      <trkpt lat="44.51921" lon="4.92596">
        <ele>411</ele>
        <time>2022-05-08T11:16:04.414Z</time>
      </trkpt>
      <trkpt lat="44.5194" lon="4.92538">
        <ele>409</ele>
        <time>2022-05-08T11:16:40.929Z</time>
      </trkpt>
      <trkpt lat="44.51967" lon="4.92481">
        <ele>408</ele>
        <time>2022-05-08T11:17:20.060Z</time>
      </trkpt>
      <trkpt lat="44.51994" lon="4.92447">
        <ele>408</ele>
        <time>2022-05-08T11:17:49.136Z</time>
      </trkpt>
      <trkpt lat="44.52013" lon="4.92445">
        <ele>406</ele>
        <time>2022-05-08T11:18:04.381Z</time>
      </trkpt>
      <trkpt lat="44.52053" lon="4.92465">
        <ele>406</ele>
        <time>2022-05-08T11:18:38.370Z</time>
      </trkpt>
      <trkpt lat="44.52172" lon="4.92522">
        <ele>406</ele>
        <time>2022-05-08T11:20:31.816Z</time>
      </trkpt>
      <trkpt lat="44.52248" lon="4.92558">
        <ele>388</ele>
        <time>2022-05-08T11:22:58.922Z</time>
      </trkpt>
      <trkpt lat="44.5246" lon="4.92695">
        <ele>336</ele>
        <time>2022-05-08T11:29:16.967Z</time>
      </trkpt>
      <trkpt lat="44.52469" lon="4.92709">
        <ele>336</ele>
        <time>2022-05-08T11:29:38.762Z</time>
      </trkpt>
      <trkpt lat="44.5247" lon="4.92755">
        <ele>334</ele>
        <time>2022-05-08T11:30:12.572Z</time>
      </trkpt>
      <trkpt lat="44.52482" lon="4.92767">
        <ele>334</ele>
        <time>2022-05-08T11:30:27.724Z</time>
      </trkpt>
      <trkpt lat="44.52506" lon="4.92778">
        <ele>328</ele>
        <time>2022-05-08T11:31:09.941Z</time>
      </trkpt>
      <trkpt lat="44.52513" lon="4.92771">
        <ele>326</ele>
        <time>2022-05-08T11:31:24.327Z</time>
      </trkpt>
      <trkpt lat="44.52525" lon="4.92731">
        <ele>321</ele>
        <time>2022-05-08T11:31:57.187Z</time>
      </trkpt>
      <trkpt lat="44.52536" lon="4.92666">
        <ele>317</ele>
        <time>2022-05-08T11:33:01.268Z</time>
      </trkpt>
      <trkpt lat="44.52548" lon="4.92642">
        <ele>315</ele>
        <time>2022-05-08T11:33:29.360Z</time>
      </trkpt>
      <trkpt lat="44.52679" lon="4.92612">
        <ele>290</ele>
        <time>2022-05-08T11:36:42.543Z</time>
      </trkpt>
      <trkpt lat="44.52764" lon="4.92612">
        <ele>278</ele>
        <time>2022-05-08T11:38:19.059Z</time>
      </trkpt>
      <trkpt lat="44.52813" lon="4.92548">
        <ele>271</ele>
        <time>2022-05-08T11:39:22.848Z</time>
      </trkpt>
      <trkpt lat="44.52857" lon="4.92547">
        <ele>267</ele>
        <time>2022-05-08T11:40:02.305Z</time>
      </trkpt>
      <trkpt lat="44.52933" lon="4.92496">
        <ele>260</ele>
        <time>2022-05-08T11:41:12.457Z</time>
      </trkpt>
      <trkpt lat="44.52942" lon="4.92484">
        <ele>259</ele>
        <time>2022-05-08T11:41:22.806Z</time>
      </trkpt>
      <trkpt lat="44.52961" lon="4.92434">
        <ele>258</ele>
        <time>2022-05-08T11:41:55.209Z</time>
      </trkpt>
      <trkpt lat="44.52972" lon="4.92427">
        <ele>258</ele>
        <time>2022-05-08T11:42:04.879Z</time>
      </trkpt>
      <trkpt lat="44.52989" lon="4.92426">
        <ele>258</ele>
        <time>2022-05-08T11:42:18.492Z</time>
      </trkpt>
      <trkpt lat="44.53019" lon="4.9244">
        <ele>258</ele>
        <time>2022-05-08T11:42:43.797Z</time>
      </trkpt>
      <trkpt lat="44.53062" lon="4.9245">
        <ele>256</ele>
        <time>2022-05-08T11:43:20.534Z</time>
      </trkpt>
      <trkpt lat="44.5312" lon="4.9245">
        <ele>251</ele>
        <time>2022-05-08T11:44:07.610Z</time>
      </trkpt>
      <trkpt lat="44.53178" lon="4.92473">
        <ele>249</ele>
        <time>2022-05-08T11:44:55.846Z</time>
      </trkpt>
      <trkpt lat="44.53338" lon="4.92448">
        <ele>242</ele>
        <time>2022-05-08T11:47:04.656Z</time>
      </trkpt>
      <trkpt lat="44.534" lon="4.92467">
        <ele>237</ele>
        <time>2022-05-08T11:47:57.070Z</time>
      </trkpt>
      <trkpt lat="44.53418" lon="4.92457">
        <ele>236</ele>
        <time>2022-05-08T11:48:13.065Z</time>
      </trkpt>
      <trkpt lat="44.53445" lon="4.92452">
        <ele>235</ele>
        <time>2022-05-08T11:48:34.856Z</time>
      </trkpt>
      <trkpt lat="44.53783" lon="4.92442">
        <ele>222</ele>
        <time>2022-05-08T11:53:05.345Z</time>
      </trkpt>
      <trkpt lat="44.53849" lon="4.92542">
        <ele>217</ele>
        <time>2022-05-08T11:54:23.210Z</time>
      </trkpt>
      <trkpt lat="44.53868" lon="4.9262">
        <ele>217</ele>
        <time>2022-05-08T11:55:10.362Z</time>
      </trkpt>
      <trkpt lat="44.53903" lon="4.92675">
        <ele>216</ele>
        <time>2022-05-08T11:55:52.489Z</time>
      </trkpt>
      <trkpt lat="44.53934" lon="4.92689">
        <ele>216</ele>
        <time>2022-05-08T11:56:18.553Z</time>
      </trkpt>
      <trkpt lat="44.53985" lon="4.92664">
        <ele>216</ele>
        <time>2022-05-08T11:57:01.792Z</time>
      </trkpt>
      <trkpt lat="44.54023" lon="4.92767">
        <ele>215</ele>
        <time>2022-05-08T11:58:08.110Z</time>
      </trkpt>
      <trkpt lat="44.54059" lon="4.92747">
        <ele>215</ele>
        <time>2022-05-08T11:58:39.103Z</time>
      </trkpt>
      <trkpt lat="44.54071" lon="4.9275">
        <ele>215</ele>
        <time>2022-05-08T11:58:48.856Z</time>
      </trkpt>
      <trkpt lat="44.54109" lon="4.92926">
        <ele>215</ele>
        <time>2022-05-08T12:00:34.055Z</time>
      </trkpt>
      <trkpt lat="44.54179" lon="4.93116">
        <ele>215</ele>
        <time>2022-05-08T12:02:36.352Z</time>
      </trkpt>
      <trkpt lat="44.54192" lon="4.93169">
        <ele>215</ele>
        <time>2022-05-08T12:03:08.413Z</time>
      </trkpt>
      <trkpt lat="44.54236" lon="4.93226">
        <ele>214</ele>
        <time>2022-05-08T12:03:56.403Z</time>
      </trkpt>
      <trkpt lat="44.54279" lon="4.93295">
        <ele>214</ele>
        <time>2022-05-08T12:04:48.771Z</time>
      </trkpt>
      <trkpt lat="44.54294" lon="4.93329">
        <ele>213</ele>
        <time>2022-05-08T12:05:11.629Z</time>
      </trkpt>
      <trkpt lat="44.54321" lon="4.93421">
        <ele>213</ele>
        <time>2022-05-08T12:06:11.285Z</time>
      </trkpt>
      <trkpt lat="44.54315" lon="4.93474">
        <ele>214</ele>
        <time>2022-05-08T12:06:42.994Z</time>
      </trkpt>
      <trkpt lat="44.54437" lon="4.93501">
        <ele>214</ele>
        <time>2022-05-08T12:08:48.084Z</time>
      </trkpt>
      <trkpt lat="44.5463" lon="4.93545">
        <ele>230</ele>
        <time>2022-05-08T12:13:11.427Z</time>
      </trkpt>
      <trkpt lat="44.54661" lon="4.93555">
        <ele>234</ele>
        <time>2022-05-08T12:14:09.645Z</time>
      </trkpt>
      <trkpt lat="44.54692" lon="4.93575">
        <ele>239</ele>
        <time>2022-05-08T12:15:13.804Z</time>
      </trkpt>
      <trkpt lat="44.54784" lon="4.9367">
        <ele>255</ele>
        <time>2022-05-08T12:19:30.098Z</time>
      </trkpt>
      <trkpt lat="44.54782" lon="4.9368">
        <ele>258</ele>
        <time>2022-05-08T12:19:46.739Z</time>
      </trkpt>
      <trkpt lat="44.54789" lon="4.93721">
        <ele>266</ele>
        <time>2022-05-08T12:20:36.081Z</time>
      </trkpt>
      <trkpt lat="44.54848" lon="4.93845">
        <ele>274</ele>
        <time>2022-05-08T12:22:57.095Z</time>
      </trkpt>
      <trkpt lat="44.54889" lon="4.9396">
        <ele>283</ele>
        <time>2022-05-08T12:24:47.689Z</time>
      </trkpt>
      <trkpt lat="44.54909" lon="4.93992">
        <ele>283</ele>
        <time>2022-05-08T12:25:18.923Z</time>
      </trkpt>
      <trkpt lat="44.54931" lon="4.9401">
        <ele>286</ele>
        <time>2022-05-08T12:25:42.495Z</time>
      </trkpt>
      <trkpt lat="44.5495" lon="4.94008">
        <ele>286</ele>
        <time>2022-05-08T12:26:00.116Z</time>
      </trkpt>
      <trkpt lat="44.55003" lon="4.93977">
        <ele>286</ele>
        <time>2022-05-08T12:26:51.988Z</time>
      </trkpt>
      <trkpt lat="44.55024" lon="4.93958">
        <ele>288</ele>
        <time>2022-05-08T12:27:14.450Z</time>
      </trkpt>
      <trkpt lat="44.55061" lon="4.93889">
        <ele>288</ele>
        <time>2022-05-08T12:28:03.690Z</time>
      </trkpt>
      <trkpt lat="44.55065" lon="4.93894">
        <ele>288</ele>
        <time>2022-05-08T12:28:08.569Z</time>
      </trkpt>
      <trkpt lat="44.55085" lon="4.93862">
        <ele>288</ele>
        <time>2022-05-08T12:28:32.424Z</time>
      </trkpt>
    </trkseg>
  </trk>
</gpx>